Time;durP1;ratioP1;P1;durP2;ratioP2;P2;SDS_P1;SDS_P2;PMS_P1;PMS_P2;Temp;Humidity;BMP_temperature;BMP_pressure;BME280_temperature;BME280_humidity;BME280_pressure;Samples;Min_cycle;Max_cycle;Signal;HPM_P1;HPM_P2
2024/01/08 00:01:36;;;;;;;6.37;4.03;;;-1.50;99.90;;;;;;5113637;27;20114;-87
2024/01/08 00:04:02;;;;;;;8.03;4.93;;;-1.40;99.90;;;;;;5088248;28;20173;-87
2024/01/08 00:06:27;;;;;;;6.20;4.13;;;-1.40;99.90;;;;;;5081917;27;20121;-86
2024/01/08 00:08:53;;;;;;;6.37;4.10;;;-1.40;99.90;;;;;;5113680;27;20435;-86
2024/01/08 00:11:18;;;;;;;7.83;4.20;;;-1.40;99.90;;;;;;5114024;27;20046;-86
2024/01/08 00:13:44;;;;;;;7.03;4.30;;;-1.50;99.90;;;;;;5096441;27;20046;-86
2024/01/08 00:16:10;;;;;;;8.53;4.50;;;-1.40;99.90;;;;;;5096878;28;20091;-87
2024/01/08 00:18:35;;;;;;;6.13;4.27;;;-1.50;99.90;;;;;;5113647;28;20039;-86
2024/01/08 00:21:02;;;;;;;5.77;3.87;;;-1.50;99.90;;;;;;5116063;27;20031;-86
2024/01/08 00:23:30;;;;;;;7.70;4.30;;;-0.70;99.90;;;;;;5094063;27;20038;-86
2024/01/08 00:25:56;;;;;;;8.07;4.47;;;-1.50;99.90;;;;;;5096654;28;20513;-86
2024/01/08 00:28:22;;;;;;;7.37;4.23;;;-1.60;99.90;;;;;;5114135;28;20070;-85
2024/01/08 00:30:47;;;;;;;6.63;4.20;;;-1.70;99.90;;;;;;5113080;28;20382;-85
2024/01/08 00:33:13;;;;;;;6.37;4.03;;;-1.70;99.90;;;;;;5096693;28;20039;-86
2024/01/08 00:35:39;;;;;;;9.77;4.83;;;-1.80;99.90;;;;;;5096281;28;20039;-86
2024/01/08 00:38:05;;;;;;;7.07;4.30;;;-1.90;99.90;;;;;;5096545;28;20058;-86
2024/01/08 00:40:30;;;;;;;7.60;4.03;;;-2.00;99.90;;;;;;5096243;28;20435;-86
2024/01/08 00:42:57;;;;;;;6.30;4.30;;;-2.00;99.90;;;;;;5096601;28;20122;-86
2024/01/08 00:45:23;;;;;;;7.03;4.27;;;-2.10;99.90;;;;;;5113163;28;20039;-86
2024/01/08 00:47:49;;;;;;;7.70;4.60;;;-0.80;99.90;;;;;;5113407;28;20046;-86
2024/01/08 00:50:15;;;;;;;9.63;4.30;;;-2.10;99.90;;;;;;5113859;28;20406;-86
2024/01/08 00:52:41;;;;;;;6.93;4.00;;;-0.90;99.90;;;;;;5113205;28;20047;-86
2024/01/08 00:55:07;;;;;;;7.43;4.53;;;-2.20;99.90;;;;;;5083838;27;20046;-86
2024/01/08 00:57:34;;;;;;;10.53;4.70;;;-2.20;99.90;;;;;;5108108;27;20483;-86
2024/01/08 01:00:00;;;;;;;7.07;3.97;;;-2.30;99.90;;;;;;5105506;28;20046;-86
2024/01/08 01:02:25;;;;;;;7.37;4.37;;;-1.50;99.90;;;;;;5105279;27;20031;-86
2024/01/08 01:04:51;;;;;;;6.93;4.20;;;-2.30;99.90;;;;;;5099700;27;20049;-86
2024/01/08 01:07:17;;;;;;;7.10;4.30;;;-2.30;99.90;;;;;;5116357;27;20122;-86
2024/01/08 01:09:42;;;;;;;9.23;4.50;;;-2.30;99.90;;;;;;5116786;27;20039;-85
2024/01/08 01:12:09;;;;;;;8.77;4.53;;;-2.40;99.90;;;;;;5099595;27;20160;-85
2024/01/08 01:14:35;;;;;;;7.33;4.27;;;-2.40;99.90;;;;;;5116706;27;20084;-86
2024/01/08 01:17:00;;;;;;;9.10;4.33;;;-2.40;99.90;;;;;;5116860;27;20036;-85
2024/01/08 01:19:26;;;;;;;8.00;4.80;;;-2.40;99.90;;;;;;5099924;27;20031;-85
2024/01/08 01:21:51;;;;;;;11.30;4.93;;;-2.40;99.90;;;;;;5099677;27;20107;-85
2024/01/08 01:24:17;;;;;;;8.53;5.30;;;-2.40;99.90;;;;;;5116648;27;20095;-86
2024/01/08 01:26:43;;;;;;;8.00;4.90;;;-2.40;99.90;;;;;;5116362;27;20099;-86
2024/01/08 01:29:08;;;;;;;11.37;5.30;;;-2.40;99.90;;;;;;5116144;27;20126;-85
2024/01/08 01:31:34;;;;;;;9.20;5.20;;;-2.30;99.90;;;;;;5116541;27;20396;-86
2024/01/08 01:34:03;;;;;;;9.10;5.07;;;-2.30;99.90;;;;;;5116619;27;20035;-86
2024/01/08 01:36:29;;;;;;;8.47;4.90;;;-2.30;99.90;;;;;;5098768;27;20252;-86
2024/01/08 01:38:55;;;;;;;7.27;4.60;;;-2.20;99.90;;;;;;5116251;27;20095;-86
2024/01/08 01:41:21;;;;;;;9.43;5.33;;;-2.20;99.90;;;;;;5115942;27;20043;-85
2024/01/08 01:43:46;;;;;;;10.70;5.20;;;-2.20;99.90;;;;;;5087795;27;20054;-86
2024/01/08 01:46:42;;;;;;;9.43;5.07;;;-2.10;99.90;;;;;;5116318;27;20044;-86
2024/01/08 01:49:11;;;;;;;8.47;4.87;;;-2.10;99.90;;;;;;5116309;27;20035;-86
2024/01/08 01:51:42;;;;;;;8.73;5.00;;;-2.00;99.90;;;;;;5099059;27;20035;-85
2024/01/08 01:54:09;;;;;;;8.23;4.90;;;-2.00;99.90;;;;;;5116357;27;20047;-86
2024/01/08 01:56:36;;;;;;;8.13;5.33;;;-1.90;99.90;;;;;;5098743;27;20035;-86
2024/01/08 01:59:03;;;;;;;26.83;6.33;;;-2.00;99.90;;;;;;5081111;28;20164;-86
2024/01/08 02:01:29;;;;;;;9.30;5.87;;;-2.00;99.90;;;;;;5110782;27;20118;-86
2024/01/08 02:03:55;;;;;;;8.33;4.90;;;-1.90;99.90;;;;;;5115850;27;20043;-86
2024/01/08 02:06:23;;;;;;;9.13;5.60;;;-1.20;99.90;;;;;;5117248;27;20039;-86
2024/01/08 02:08:52;;;;;;;10.37;5.53;;;-1.90;99.90;;;;;;5115570;27;20347;-86
2024/01/08 02:11:18;;;;;;;9.20;6.00;;;-1.90;99.90;;;;;;5115791;27;20036;-87
2024/01/08 02:13:44;;;;;;;9.13;5.53;;;-1.90;99.90;;;;;;5115482;27;20066;-87
2024/01/08 02:16:10;;;;;;;11.17;5.30;;;-1.80;99.90;;;;;;5115343;27;20063;-86
2024/01/08 02:18:35;;;;;;;7.77;5.17;;;-1.80;99.90;;;;;;5116199;27;20095;-87
2024/01/08 02:21:01;;;;;;;8.30;5.67;;;-1.80;99.90;;;;;;5115409;27;20035;-86
2024/01/08 02:23:26;;;;;;;7.77;5.20;;;-1.80;99.90;;;;;;5098820;27;20023;-87
2024/01/08 02:25:52;;;;;;;10.70;5.90;;;-1.80;99.90;;;;;;5115514;27;20076;-87
2024/01/08 02:28:18;;;;;;;9.67;5.23;;;-1.80;99.90;;;;;;5115621;27;20080;-88
2024/01/08 02:30:43;;;;;;;8.60;5.47;;;-1.70;99.90;;;;;;5096471;27;20035;-86
2024/01/08 02:33:09;;;;;;;9.60;6.23;;;-1.70;99.90;;;;;;5109306;27;20043;-87
2024/01/08 02:35:36;;;;;;;9.60;5.80;;;-1.70;99.90;;;;;;5115430;27;20039;-87
2024/01/08 02:38:02;;;;;;;11.30;6.43;;;-1.70;99.90;;;;;;5097729;27;20035;-86
2024/01/08 02:40:28;;;;;;;10.03;5.83;;;-1.70;99.90;;;;;;5098347;27;20031;-87
2024/01/08 02:42:53;;;;;;;9.50;5.90;;;-1.70;99.90;;;;;;5097729;27;20034;-87
2024/01/08 02:45:19;;;;;;;12.13;6.00;;;-1.70;99.90;;;;;;5097343;27;20441;-87
2024/01/08 02:47:44;;;;;;;9.37;5.87;;;-1.60;99.90;;;;;;5081918;27;20036;-87
2024/01/08 02:50:10;;;;;;;10.20;6.33;;;-1.60;99.90;;;;;;5097919;27;20050;-87
2024/01/08 02:52:36;;;;;;;10.50;6.30;;;-1.60;99.90;;;;;;5114808;27;20063;-87
2024/01/08 02:55:02;;;;;;;13.47;6.50;;;-1.60;99.90;;;;;;5097408;27;20031;-87
2024/01/08 02:57:29;;;;;;;12.47;6.57;;;-1.60;99.90;;;;;;5098124;27;20394;-87
2024/01/08 02:59:55;;;;;;;11.07;6.70;;;-1.50;99.90;;;;;;5098010;27;20114;-87
2024/01/08 03:02:22;;;;;;;11.37;7.10;;;-0.40;99.90;;;;;;5097819;27;20558;-87
2024/01/08 03:04:48;;;;;;;11.40;6.83;;;-0.70;99.90;;;;;;5082327;28;20050;-87
2024/01/08 03:07:17;;;;;;;9.47;6.10;;;-1.50;99.90;;;;;;5089403;27;20034;-87
2024/01/08 03:09:44;;;;;;;11.13;6.07;;;-0.20;99.90;;;;;;5097009;27;20031;-87
2024/01/08 03:12:11;;;;;;;9.93;6.30;;;-1.50;99.90;;;;;;5105974;27;20471;-87
2024/01/08 03:14:36;;;;;;;9.80;5.43;;;-1.50;99.90;;;;;;5097424;27;20039;-86
2024/01/08 03:17:02;;;;;;;10.80;5.83;;;-1.50;99.90;;;;;;5096592;28;20027;-86
2024/01/08 03:19:27;;;;;;;13.07;5.63;;;-1.40;99.90;;;;;;5114543;27;20547;-87
2024/01/08 03:21:53;;;;;;;10.30;5.97;;;-1.50;99.90;;;;;;5114527;27;20490;-87
2024/01/08 03:24:19;;;;;;;11.53;5.20;;;-1.40;99.90;;;;;;5114472;27;20031;-87
2024/01/08 03:26:44;;;;;;;7.37;4.80;;;-1.40;99.90;;;;;;5113637;27;20088;-86
2024/01/08 03:29:10;;;;;;;7.10;4.47;;;-1.40;99.90;;;;;;5097956;27;20126;-87
2024/01/08 03:31:43;;;;;;;8.83;5.17;;;-1.30;99.90;;;;;;5116515;27;20521;-87
2024/01/08 03:34:08;;;;;;;7.47;5.13;;;-1.30;99.90;;;;;;5097092;27;20152;-87
2024/01/08 03:36:34;;;;;;;8.30;5.30;;;-1.30;99.90;;;;;;5096660;27;20296;-87
2024/01/08 03:39:00;;;;;;;7.07;4.53;;;-1.30;99.90;;;;;;5114252;27;20513;-87
2024/01/08 03:41:26;;;;;;;9.77;4.80;;;-1.30;99.90;;;;;;5114014;27;20038;-87
2024/01/08 03:43:51;;;;;;;8.60;5.13;;;-1.30;99.90;;;;;;5113874;27;20130;-88
2024/01/08 03:46:17;;;;;;;9.00;5.53;;;-1.30;99.90;;;;;;5114178;27;20035;-88
2024/01/08 03:48:43;;;;;;;8.33;4.97;;;-1.30;99.90;;;;;;5096465;27;20065;-88
2024/01/08 03:51:08;;;;;;;7.57;5.03;;;-1.30;99.90;;;;;;5097297;27;20422;-87
2024/01/08 03:53:34;;;;;;;9.67;5.40;;;-1.30;99.90;;;;;;5096528;27;20050;-88
2024/01/08 03:55:59;;;;;;;7.77;4.87;;;-1.30;99.90;;;;;;5113970;27;20044;-88
2024/01/08 03:58:25;;;;;;;7.33;4.63;;;-1.20;99.90;;;;;;5097202;27;20079;-88
2024/01/08 04:00:52;;;;;;;8.30;5.27;;;-1.30;99.90;;;;;;5097360;27;20046;-88
2024/01/08 04:03:17;;;;;;;11.00;5.60;;;-1.30;99.90;;;;;;5132315;27;20031;-88
2024/01/08 04:05:43;;;;;;;9.57;4.87;;;-1.30;99.90;;;;;;5113747;27;20038;-88
2024/01/08 04:08:09;;;;;;;10.20;5.40;;;-1.30;99.90;;;;;;5097297;27;20121;-88
2024/01/08 04:10:34;;;;;;;9.40;4.93;;;-1.30;99.90;;;;;;5112943;27;20045;-88
2024/01/08 04:13:00;;;;;;;7.70;4.60;;;-1.30;99.90;;;;;;5099812;27;20520;-88
2024/01/08 04:15:25;;;;;;;8.60;5.27;;;-1.30;99.90;;;;;;5114000;27;20583;-88
2024/01/08 04:17:51;;;;;;;8.97;5.00;;;0.30;99.90;;;;;;5097276;28;20118;-88
2024/01/08 04:20:17;;;;;;;8.30;5.43;;;-1.30;99.90;;;;;;5113778;28;20067;-88
2024/01/08 04:22:45;;;;;;;8.73;4.97;;;-1.30;99.90;;;;;;5096593;27;20031;-88
2024/01/08 04:25:10;;;;;;;7.33;4.77;;;-1.30;99.90;;;;;;5113423;28;20035;-88
2024/01/08 04:27:36;;;;;;;8.33;4.73;;;0.10;99.90;;;;;;5096639;28;20040;-87
2024/01/08 04:30:03;;;;;;;8.40;5.20;;;-0.30;99.90;;;;;;5096184;28;20058;-87
2024/01/08 04:32:28;;;;;;;10.87;4.87;;;-1.30;99.90;;;;;;5086438;28;20040;-88
2024/01/08 04:34:54;;;;;;;7.47;4.30;;;-1.40;99.90;;;;;;5113437;28;20455;-88
2024/01/08 04:37:19;;;;;;;6.73;4.40;;;-1.40;99.90;;;;;;5113622;28;20062;-88
2024/01/08 04:39:46;;;;;;;6.80;4.40;;;-1.30;99.90;;;;;;5113786;28;20545;-89
2024/01/08 04:42:11;;;;;;;8.27;4.63;;;-1.40;99.90;;;;;;5132723;28;20051;-89
2024/01/08 04:44:37;;;;;;;6.73;4.30;;;-1.40;99.90;;;;;;5104060;28;20043;-88
2024/01/08 04:47:03;;;;;;;7.33;4.20;;;-1.40;99.90;;;;;;5109933;28;20414;-88
2024/01/08 04:49:28;;;;;;;6.73;3.90;;;-0.10;99.90;;;;;;5132017;28;20053;-88
2024/01/08 04:51:54;;;;;;;6.20;4.03;;;-1.40;99.90;;;;;;5113386;28;20503;-89
2024/01/08 04:54:20;;;;;;;6.03;3.63;;;-1.40;99.90;;;;;;5113021;28;20114;-88
2024/01/08 04:56:48;;;;;;;7.93;3.40;;;-1.50;99.90;;;;;;5113017;28;20031;-88
2024/01/08 04:59:13;;;;;;;7.27;3.83;;;-1.50;99.90;;;;;;5113684;28;20031;-89
2024/01/08 05:01:39;;;;;;;4.77;3.73;;;-1.50;99.90;;;;;;5113317;28;20087;-88
2024/01/08 05:04:05;;;;;;;5.47;3.80;;;-1.50;99.90;;;;;;5131234;27;20035;-87
2024/01/08 05:06:31;;;;;;;4.70;3.20;;;0.00;99.90;;;;;;5131182;28;20043;-87
2024/01/08 05:08:56;;;;;;;6.67;3.33;;;-1.90;99.90;;;;;;5112934;28;20070;-87
2024/01/08 05:11:22;;;;;;;4.83;3.20;;;-1.80;99.90;;;;;;5112770;28;20054;-88
2024/01/08 05:13:48;;;;;;;5.67;3.50;;;-1.80;99.90;;;;;;5112812;27;20510;-88
2024/01/08 05:16:13;;;;;;;4.73;2.90;;;-1.90;99.90;;;;;;5095989;28;20088;-87
2024/01/08 05:18:39;;;;;;;4.87;3.00;;;-1.90;99.90;;;;;;5112590;28;20039;-87
2024/01/08 05:21:05;;;;;;;5.07;3.13;;;-2.00;99.90;;;;;;5113186;28;20108;-87
2024/01/08 05:23:30;;;;;;;4.43;3.10;;;-2.00;99.90;;;;;;5112664;27;20043;-86
2024/01/08 05:25:59;;;;;;;4.93;3.33;;;-2.10;99.90;;;;;;5113142;28;20110;-87
2024/01/08 05:28:28;;;;;;;5.03;2.90;;;-2.20;99.90;;;;;;5096291;28;20039;-86
2024/01/08 05:30:54;;;;;;;5.67;3.67;;;-2.20;99.90;;;;;;5112805;28;20220;-86
2024/01/08 05:33:20;;;;;;;4.67;3.03;;;-2.20;99.90;;;;;;5089740;28;20039;-86
2024/01/08 05:35:46;;;;;;;6.00;3.20;;;-2.20;99.90;;;;;;5077594;28;20043;-86
2024/01/08 05:38:12;;;;;;;6.80;3.80;;;-2.20;99.90;;;;;;5112783;28;20042;-87
2024/01/08 05:40:38;;;;;;;6.60;3.80;;;-2.20;99.90;;;;;;5095964;27;20031;-86
2024/01/08 05:43:04;;;;;;;6.80;3.80;;;-2.20;99.90;;;;;;5099416;27;20027;-86
2024/01/08 05:45:30;;;;;;;6.33;3.70;;;-2.20;99.90;;;;;;5117063;27;20038;-87
2024/01/08 05:47:56;;;;;;;8.33;3.93;;;-2.20;99.90;;;;;;5116753;27;20397;-85
2024/01/08 05:50:27;;;;;;;8.60;4.17;;;-2.20;99.90;;;;;;5099285;27;20070;-85
2024/01/08 05:52:54;;;;;;;6.17;3.83;;;-2.20;99.90;;;;;;5116394;27;20103;-86
2024/01/08 05:55:22;;;;;;;6.63;3.63;;;-2.20;99.90;;;;;;5115993;27;20039;-86
2024/01/08 05:57:48;;;;;;;5.60;3.53;;;-2.20;99.90;;;;;;5082228;28;20039;-86
2024/01/08 06:00:15;;;;;;;7.57;4.30;;;-2.30;99.90;;;;;;5094352;27;20034;-86
2024/01/08 06:02:44;;;;;;;9.80;4.10;;;-2.30;99.90;;;;;;5116410;27;20463;-86
2024/01/08 06:05:11;;;;;;;7.77;4.27;;;-2.30;99.90;;;;;;5087425;28;20123;-86
2024/01/08 06:07:37;;;;;;;6.83;4.10;;;-2.40;99.90;;;;;;5086495;27;20035;-86
2024/01/08 06:10:04;;;;;;;7.13;4.13;;;-2.30;99.90;;;;;;5098537;27;20543;-85
2024/01/08 06:12:30;;;;;;;7.90;4.30;;;-2.30;99.90;;;;;;5116054;27;20418;-85
2024/01/08 06:14:55;;;;;;;7.17;4.00;;;-2.40;99.90;;;;;;5098423;27;20028;-85
2024/01/08 06:17:21;;;;;;;7.27;4.17;;;-2.40;99.90;;;;;;5115690;27;20039;-86
2024/01/08 06:19:48;;;;;;;7.63;4.30;;;-2.40;99.90;;;;;;5081827;28;20032;-86
2024/01/08 06:22:17;;;;;;;7.20;4.80;;;-2.40;99.90;;;;;;5108269;27;20497;-85
2024/01/08 06:24:43;;;;;;;8.33;4.27;;;-2.40;99.90;;;;;;5098008;27;20030;-85
2024/01/08 06:27:09;;;;;;;7.27;4.67;;;-2.30;99.90;;;;;;5098288;27;20186;-86
2024/01/08 06:29:34;;;;;;;7.03;4.73;;;-2.20;99.90;;;;;;5115417;27;20130;-85
2024/01/08 06:32:00;;;;;;;7.37;4.27;;;-2.20;99.90;;;;;;5115279;27;20043;-86
2024/01/08 06:34:25;;;;;;;7.13;4.43;;;-2.20;99.90;;;;;;5115188;27;20035;-86
2024/01/08 06:36:51;;;;;;;8.27;4.00;;;-2.10;99.90;;;;;;5098013;27;20031;-86
2024/01/08 06:39:17;;;;;;;5.70;4.00;;;-2.10;99.90;;;;;;5115051;27;20115;-86
2024/01/08 06:41:43;;;;;;;7.83;4.37;;;-2.00;99.90;;;;;;5115115;27;20034;-86
2024/01/08 06:44:08;;;;;;;7.47;4.20;;;-2.00;99.90;;;;;;5127637;27;20031;-86
2024/01/08 06:46:34;;;;;;;5.80;3.90;;;-1.90;99.90;;;;;;5103724;27;20099;-86
2024/01/08 06:49:00;;;;;;;7.67;3.90;;;-1.90;99.90;;;;;;5115070;27;20031;-87
2024/01/08 06:51:25;;;;;;;9.30;4.90;;;-1.90;99.90;;;;;;5133629;27;20172;-87
2024/01/08 06:53:51;;;;;;;6.83;3.77;;;-1.80;99.90;;;;;;5114734;27;20397;-86
2024/01/08 06:56:17;;;;;;;8.53;4.13;;;-0.50;99.90;;;;;;5114898;27;20031;-87
2024/01/08 06:58:42;;;;;;;8.10;4.10;;;-1.80;99.90;;;;;;5115095;27;20307;-86
2024/01/08 07:01:08;;;;;;;6.17;3.93;;;-1.90;99.90;;;;;;5115797;27;20104;-87
2024/01/08 07:03:35;;;;;;;6.43;3.63;;;-1.80;99.90;;;;;;5098597;27;20027;-87
2024/01/08 07:06:01;;;;;;;6.87;3.77;;;-1.70;99.90;;;;;;5098024;27;20035;-86
2024/01/08 07:08:27;;;;;;;11.47;4.20;;;-1.70;99.90;;;;;;5115079;27;20139;-87
2024/01/08 07:10:53;;;;;;;6.40;3.87;;;-1.70;99.90;;;;;;5114360;27;20117;-87
2024/01/08 07:13:19;;;;;;;7.53;3.77;;;-1.70;99.90;;;;;;5097979;27;20132;-87
2024/01/08 07:15:48;;;;;;;10.43;4.00;;;-1.70;99.90;;;;;;5114365;27;20039;-87
2024/01/08 07:18:18;;;;;;;6.90;3.70;;;-1.70;99.90;;;;;;5100854;28;20518;-88
2024/01/08 07:20:43;;;;;;;9.83;3.80;;;-1.60;99.90;;;;;;5111837;27;20031;-88
2024/01/08 07:23:11;;;;;;;9.83;4.17;;;-1.60;99.90;;;;;;5098023;27;20042;-88
2024/01/08 07:25:41;;;;;;;7.23;3.80;;;-1.60;99.90;;;;;;5113840;27;20039;-89
2024/01/08 07:28:09;;;;;;;8.00;3.90;;;-1.60;99.90;;;;;;5081081;27;20122;-88
2024/01/08 07:30:36;;;;;;;8.80;3.90;;;-1.60;99.90;;;;;;5097271;27;20103;-87
2024/01/08 07:33:02;;;;;;;8.03;4.47;;;-1.50;99.90;;;;;;5079022;27;20043;-88
2024/01/08 07:35:27;;;;;;;7.50;4.20;;;-1.50;99.90;;;;;;5097376;27;20042;-87
2024/01/08 07:37:56;;;;;;;7.07;3.97;;;-1.50;99.90;;;;;;5103370;27;20062;-87
2024/01/08 07:40:25;;;;;;;5.40;3.50;;;-1.50;99.90;;;;;;5117741;27;20031;-88
2024/01/08 07:42:55;;;;;;;7.17;3.97;;;-1.50;99.90;;;;;;5113227;27;20065;-87
2024/01/08 07:45:26;;;;;;;6.17;3.90;;;-1.60;99.90;;;;;;5113949;27;20035;-87
2024/01/08 07:47:52;;;;;;;6.77;3.80;;;-1.50;99.90;;;;;;5114250;27;20091;-87
2024/01/08 07:50:19;;;;;;;11.17;4.90;;;-1.70;99.90;;;;;;5083452;28;20032;-88
2024/01/08 07:52:45;;;;;;;8.40;3.97;;;-1.50;99.90;;;;;;5091326;27;20059;-89
2024/01/08 07:55:10;;;;;;;8.87;4.63;;;-1.50;99.90;;;;;;5113976;27;20594;-89
2024/01/08 07:57:36;;;;;;;6.87;3.73;;;-1.40;99.90;;;;;;5099016;27;20027;-88
2024/01/08 08:00:06;;;;;;;9.77;4.27;;;-1.40;99.90;;;;;;5097390;27;20081;-88
2024/01/08 08:02:33;;;;;;;6.33;3.57;;;-1.40;99.90;;;;;;5112487;28;20110;-87
2024/01/08 08:04:58;;;;;;;6.90;3.87;;;-1.40;99.90;;;;;;5112116;27;20035;-88
2024/01/08 08:07:24;;;;;;;9.23;4.00;;;-1.40;99.90;;;;;;5107943;28;20054;-88
2024/01/08 08:09:50;;;;;;;5.73;3.47;;;-1.40;99.90;;;;;;5115914;27;20498;-88
2024/01/08 08:12:16;;;;;;;8.97;3.77;;;-1.30;99.90;;;;;;5118866;27;20071;-88
2024/01/08 08:14:43;;;;;;;6.40;3.53;;;-1.30;99.90;;;;;;5096525;27;20487;-88
2024/01/08 08:17:09;;;;;;;11.03;4.00;;;-1.30;99.90;;;;;;5096833;28;20031;-88
2024/01/08 08:19:35;;;;;;;9.30;4.27;;;-1.30;99.90;;;;;;5092606;28;20440;-87
2024/01/08 08:22:01;;;;;;;7.80;4.00;;;-1.60;99.90;;;;;;5086079;28;20028;-88
2024/01/08 08:24:26;;;;;;;7.47;3.57;;;-0.30;99.90;;;;;;5118045;27;20038;-88
2024/01/08 08:26:52;;;;;;;5.77;3.53;;;-1.20;99.90;;;;;;5113383;28;20060;-88
2024/01/08 08:29:18;;;;;;;6.57;3.43;;;-1.20;99.90;;;;;;5113874;28;20031;-88
2024/01/08 08:31:43;;;;;;;5.73;3.63;;;-1.20;99.90;;;;;;5113279;28;20027;-87
2024/01/08 08:34:09;;;;;;;9.20;3.60;;;-1.20;99.90;;;;;;5102549;28;20042;-87
2024/01/08 08:36:37;;;;;;;9.43;3.80;;;-1.10;99.90;;;;;;5091111;28;20038;-87
2024/01/08 08:39:03;;;;;;;7.40;3.63;;;-1.10;99.90;;;;;;5105940;28;20046;-88
2024/01/08 08:41:29;;;;;;;8.33;3.73;;;-1.20;99.90;;;;;;5117538;28;20081;-88
2024/01/08 08:43:54;;;;;;;10.07;3.40;;;0.40;99.90;;;;;;5122629;27;20034;-88
2024/01/08 08:46:20;;;;;;;8.53;3.70;;;-1.10;99.90;;;;;;5115568;28;20049;-88
2024/01/08 08:48:46;;;;;;;7.57;3.63;;;-1.10;99.90;;;;;;5099248;28;20104;-88
2024/01/08 08:51:12;;;;;;;9.03;3.77;;;-1.10;99.90;;;;;;5101424;28;20031;-88
2024/01/08 08:53:37;;;;;;;7.90;3.43;;;-1.00;99.90;;;;;;5122315;27;20039;-89
2024/01/08 08:56:04;;;;;;;5.07;3.20;;;0.30;99.90;;;;;;5101804;28;20040;-89
2024/01/08 08:58:30;;;;;;;9.93;3.53;;;-1.00;99.90;;;;;;5097228;28;20031;-92
2024/01/08 09:00:56;;;;;;;6.60;3.63;;;-1.00;99.90;;;;;;5113719;28;20028;-90
2024/01/08 09:03:22;;;;;;;9.43;4.10;;;-1.00;99.90;;;;;;5115167;28;20035;-90
2024/01/08 09:05:47;;;;;;;6.27;3.63;;;-0.90;99.90;;;;;;5132298;28;20039;-88
2024/01/08 09:08:13;;;;;;;6.57;3.87;;;-0.90;99.90;;;;;;5097456;28;20518;-89
2024/01/08 09:10:39;;;;;;;7.77;4.00;;;-0.90;99.90;;;;;;5096531;28;20043;-89
2024/01/08 09:13:04;;;;;;;10.43;4.77;;;-0.90;99.90;;;;;;5114136;28;20043;-89
2024/01/08 09:15:30;;;;;;;10.20;4.40;;;-0.80;99.90;;;;;;5133075;27;20035;-89
2024/01/08 09:17:56;;;;;;;8.00;4.70;;;0.40;99.90;;;;;;5135414;27;20027;-90
2024/01/08 09:20:22;;;;;;;10.03;4.63;;;0.80;99.90;;;;;;5137787;27;20035;-89
2024/01/08 09:22:48;;;;;;;7.27;4.27;;;-0.80;99.90;;;;;;5117276;27;20077;-89
2024/01/08 09:25:14;;;;;;;11.00;5.20;;;0.10;99.90;;;;;;5117002;27;20066;-90
2024/01/08 09:27:42;;;;;;;5.70;4.20;;;-0.70;99.90;;;;;;5135203;27;20517;-89
2024/01/08 09:30:08;;;;;;;6.50;2.90;;;-0.60;99.90;;;;;;5117391;27;20058;-89
2024/01/08 09:32:34;;;;;;;5.60;2.83;;;-0.60;99.90;;;;;;5108247;28;20094;-89
2024/01/08 09:35:00;;;;;;;6.93;2.90;;;-0.60;99.90;;;;;;5114151;27;20063;-88
2024/01/08 09:37:25;;;;;;;4.33;2.40;;;-0.60;99.90;;;;;;5099784;27;20400;-88
2024/01/08 09:39:53;;;;;;;4.37;2.63;;;-0.60;99.90;;;;;;5100177;27;20047;-87
2024/01/08 09:42:20;;;;;;;5.23;2.50;;;-0.50;99.90;;;;;;5116127;27;20039;-86
2024/01/08 09:44:48;;;;;;;8.43;3.37;;;-0.60;99.90;;;;;;5098848;27;20031;-86
2024/01/08 09:47:16;;;;;;;4.10;2.40;;;-0.60;99.90;;;;;;5099010;27;20032;-86
2024/01/08 09:49:42;;;;;;;3.73;2.23;;;-0.50;99.90;;;;;;5133948;27;20494;-86
2024/01/08 09:52:11;;;;;;;5.93;2.40;;;-0.40;99.90;;;;;;5134316;27;20032;-88
2024/01/08 09:54:38;;;;;;;4.33;2.63;;;-0.30;99.90;;;;;;5115954;27;20027;-89
2024/01/08 09:57:04;;;;;;;4.30;2.37;;;-0.30;99.90;;;;;;5134717;27;20168;-89
2024/01/08 09:59:31;;;;;;;3.70;2.10;;;-0.30;99.90;;;;;;5116292;27;20073;-88
2024/01/08 10:01:57;;;;;;;6.80;2.33;;;-0.30;99.90;;;;;;5115932;27;20389;-88
2024/01/08 10:04:26;;;;;;;3.70;2.40;;;-0.30;99.90;;;;;;5115848;27;20039;-87
2024/01/08 10:07:08;;;;;;;4.00;2.50;;;-0.30;99.90;;;;;;5116110;27;20395;-86
2024/01/08 10:09:34;;;;;;;4.93;2.67;;;-0.40;99.90;;;;;;5098565;27;20046;-86
2024/01/08 10:12:00;;;;;;;3.80;2.50;;;-0.40;99.90;;;;;;5115302;27;20031;-86
2024/01/08 10:14:26;;;;;;;4.57;2.63;;;-0.40;99.90;;;;;;5134218;27;20035;-86
2024/01/08 10:16:54;;;;;;;4.77;2.90;;;-0.50;99.90;;;;;;5133753;27;20475;-85
2024/01/08 10:19:23;;;;;;;5.20;2.90;;;-0.40;99.90;;;;;;5115359;27;20406;-84
2024/01/08 10:22:06;;;;;;;5.13;3.27;;;-0.40;99.90;;;;;;5114805;27;20092;-83
2024/01/08 10:24:32;;;;;;;3.88;2.30;;;0.60;99.90;;;;;;5107057;28;20032;-83
2024/01/08 10:26:58;;;;;;;4.27;2.60;;;-0.30;99.90;;;;;;5081352;27;20042;-83
2024/01/08 10:29:24;;;;;;;6.00;2.50;;;-0.30;99.90;;;;;;5115300;27;20573;-84
2024/01/08 10:31:50;;;;;;;4.47;2.70;;;-0.30;99.90;;;;;;5115001;27;20039;-84
2024/01/08 10:34:16;;;;;;;5.67;2.73;;;0.30;99.90;;;;;;5117653;27;20559;-84
2024/01/08 10:36:43;;;;;;;5.13;3.03;;;-0.20;99.90;;;;;;5114877;27;20062;-84
2024/01/08 10:39:10;;;;;;;4.57;2.47;;;-0.20;99.90;;;;;;5133459;27;20042;-83
2024/01/08 10:41:36;;;;;;;8.47;2.90;;;-0.20;99.90;;;;;;5114750;27;20043;-85
2024/01/08 10:44:03;;;;;;;3.93;2.60;;;0.80;99.90;;;;;;5107202;27;20031;-84
2024/01/08 10:46:34;;;;;;;4.77;3.10;;;-0.10;99.90;;;;;;5107957;28;20043;-82
2024/01/08 10:49:01;;;;;;;5.20;2.70;;;-0.30;99.90;;;;;;5115027;27;20554;-83
2024/01/08 10:51:27;;;;;;;4.17;2.53;;;-0.20;99.90;;;;;;5114632;27;20499;-83
2024/01/08 10:53:55;;;;;;;4.97;3.13;;;-0.20;99.90;;;;;;5115254;27;20047;-82
2024/01/08 10:56:25;;;;;;;5.27;2.60;;;-0.20;99.90;;;;;;5116579;27;20426;-83
2024/01/08 10:59:09;;;;;;;6.37;3.00;;;-0.20;99.90;;;;;;5116139;27;20031;-82
2024/01/08 11:01:36;;;;;;;4.20;2.70;;;-0.20;99.90;;;;;;5135170;27;20055;-84
2024/01/08 11:04:06;;;;;;;6.93;2.93;;;-0.20;99.90;;;;;;5112256;27;20031;-82
2024/01/08 11:06:38;;;;;;;4.23;2.67;;;-0.20;99.90;;;;;;5115675;27;20039;-83
2024/01/08 11:09:04;;;;;;;4.17;2.67;;;-0.20;99.90;;;;;;5134182;27;20039;-83
2024/01/08 11:11:33;;;;;;;4.50;2.40;;;-0.20;99.90;;;;;;5116407;27;20039;-83
2024/01/08 11:13:59;;;;;;;4.43;2.83;;;-0.20;99.90;;;;;;5133434;27;20418;-83
2024/01/08 11:16:29;;;;;;;5.93;2.70;;;-0.20;99.90;;;;;;5115375;27;20033;-83
2024/01/08 11:19:26;;;;;;;4.80;2.40;;;-0.20;99.90;;;;;;5115107;27;20539;-83
2024/01/08 11:21:57;;;;;;;3.97;2.30;;;-0.30;99.90;;;;;;5091115;27;20043;-83
2024/01/08 11:24:24;;;;;;;4.47;2.40;;;-0.20;99.90;;;;;;5114430;27;20038;-85
2024/01/08 11:26:51;;;;;;;4.10;2.57;;;-0.20;99.90;;;;;;5132247;27;20077;-84
2024/01/08 11:29:18;;;;;;;3.60;2.00;;;-0.20;99.90;;;;;;5133163;27;20133;-84
2024/01/08 11:31:47;;;;;;;4.90;2.87;;;-0.20;99.90;;;;;;5083118;27;20043;-85
2024/01/08 11:34:25;;;;;;;5.50;2.80;;;-0.20;99.90;;;;;;5123737;27;20047;-85
2024/01/08 11:37:13;;;;;;;5.03;2.40;;;-0.20;99.90;;;;;;5113495;27;20121;-85
2024/01/08 11:39:40;;;;;;;4.77;2.90;;;-0.20;99.90;;;;;;5086492;28;20032;-85
2024/01/08 11:42:07;;;;;;;10.47;3.53;;;-0.10;99.90;;;;;;5101825;27;20038;-84
2024/01/08 11:44:33;;;;;;;4.17;2.43;;;-0.10;99.90;;;;;;5113370;27;20038;-83
2024/01/08 11:46:59;;;;;;;3.73;2.33;;;-0.10;99.90;;;;;;5113977;27;20383;-84
2024/01/08 11:49:24;;;;;;;5.80;2.70;;;0.00;99.90;;;;;;5113750;27;20039;-83
2024/01/08 11:51:55;;;;;;;5.23;2.57;;;0.00;99.90;;;;;;5113541;27;20043;-83
2024/01/08 11:54:21;;;;;;;4.63;2.70;;;0.20;99.90;;;;;;5112373;28;20114;-84
2024/01/08 11:56:47;;;;;;;3.80;2.50;;;0.10;99.90;;;;;;5111503;27;20127;-83
2024/01/08 11:59:12;;;;;;;6.33;2.90;;;0.20;99.90;;;;;;5113359;27;20042;-84
2024/01/08 12:01:38;;;;;;;5.27;2.53;;;0.30;99.90;;;;;;5096162;27;20065;-84
2024/01/08 12:04:04;;;;;;;5.30;3.43;;;0.50;99.90;;;;;;5114157;27;20055;-85
2024/01/08 12:06:30;;;;;;;4.07;2.63;;;0.60;99.90;;;;;;5114055;27;20054;-85
2024/01/08 12:08:56;;;;;;;5.20;2.50;;;0.50;99.90;;;;;;5097760;27;20515;-85
2024/01/08 12:11:25;;;;;;;6.13;2.90;;;0.40;99.90;;;;;;5113630;27;20070;-84
2024/01/08 12:13:54;;;;;;;5.57;3.00;;;0.20;99.90;;;;;;5102721;28;20035;-86
2024/01/08 12:16:20;;;;;;;5.20;2.80;;;0.10;99.90;;;;;;5087344;28;20050;-85
2024/01/08 12:18:46;;;;;;;5.13;2.77;;;0.20;99.90;;;;;;5087523;28;20039;-87
2024/01/08 12:21:12;;;;;;;4.67;2.53;;;0.20;99.90;;;;;;5081776;28;20406;-86
2024/01/08 12:23:38;;;;;;;4.43;2.57;;;0.30;99.90;;;;;;5113250;27;20114;-86
2024/01/08 12:26:06;;;;;;;4.40;2.53;;;1.30;99.90;;;;;;5096497;28;20035;-87
2024/01/08 12:28:33;;;;;;;6.10;2.97;;;0.40;99.90;;;;;;5132063;27;20054;-88
2024/01/08 12:30:59;;;;;;;5.23;2.83;;;1.90;99.90;;;;;;5113436;28;20039;-87
2024/01/08 12:33:25;;;;;;;4.07;2.73;;;1.50;99.90;;;;;;5096219;28;20042;-87
2024/01/08 12:35:55;;;;;;;4.83;2.83;;;0.60;99.90;;;;;;5131700;27;20044;-89
2024/01/08 12:38:21;;;;;;;4.37;3.20;;;0.70;99.90;;;;;;5085574;28;20090;-89
2024/01/08 12:40:53;;;;;;;5.50;3.07;;;0.90;99.90;;;;;;5083726;28;20069;-91
2024/01/08 12:43:20;;;;;;;4.97;2.87;;;0.90;99.90;;;;;;5092133;28;20036;-89
2024/01/08 12:45:47;;;;;;;5.17;2.50;;;1.90;99.90;;;;;;5093940;28;20046;-89